Pelzer, South Carolina
Current Conditions -  °F | °C
As of 3:35 AM on Saturday 01 Nov 2014 (Local Time) from KGYH Reporting Station
Light Snow Light Snow  
Wind Chill: 27°   Ceiling: 900
Heat Index: 34°   Visibility: 5mi
Dew Point: 34°   Wind: 8mph
Humidity: 100%   Direction: 330°NNW
Pressure: 29.78"   Gusts: NA
Location:  34.64°N, 82.46°W
Report Text: KGYH 010735Z AUTO 33007KT 5SM -SN BKN009 OVC012 01/01 A2978 RMK AO2 P0004
Loading
Personal Weather Stations






























Interactive Weather Map New forecast layout! Learn more

10-Day Weather Forecast

Advertisements
Track Severe Weather on mobile